sensor_id;sensor_type;location;lat;lon;timestamp;temperature;humidity
4187;DHT22;2107;52.306;10.484;2023-01-05T00:00:52;9.70;99.90
4187;DHT22;2107;52.306;10.484;2023-01-05T00:03:18;9.70;99.90
4187;DHT22;2107;52.306;10.484;2023-01-05T00:05:45;9.70;99.90
4187;DHT22;2107;52.306;10.484;2023-01-05T00:08:12;9.80;99.90
4187;DHT22;2107;52.306;10.484;2023-01-05T00:10:39;9.70;99.90
4187;DHT22;2107;52.306;10.484;2023-01-05T00:13:25;9.70;99.90
4187;DHT22;2107;52.306;10.484;2023-01-05T00:16:11;9.70;99.90
4187;DHT22;2107;52.306;10.484;2023-01-05T00:18:56;9.80;99.90
4187;DHT22;2107;52.306;10.484;2023-01-05T00:21:40;9.80;99.90
4187;DHT22;2107;52.306;10.484;2023-01-05T00:24:33;9.90;99.90
4187;DHT22;2107;52.306;10.484;2023-01-05T00:27:00;9.90;99.90
4187;DHT22;2107;52.306;10.484;2023-01-05T00:29:28;9.80;99.90
4187;DHT22;2107;52.306;10.484;2023-01-05T00:31:55;9.80;99.90
4187;DHT22;2107;52.306;10.484;2023-01-05T00:34:22;9.80;99.90
4187;DHT22;2107;52.306;10.484;2023-01-05T00:36:48;9.90;99.90
4187;DHT22;2107;52.306;10.484;2023-01-05T00:39:15;9.90;99.90
4187;DHT22;2107;52.306;10.484;2023-01-05T00:41:42;9.90;99.90
4187;DHT22;2107;52.306;10.484;2023-01-05T00:44:09;9.90;99.90
4187;DHT22;2107;52.306;10.484;2023-01-05T00:46:37;9.90;99.90
4187;DHT22;2107;52.306;10.484;2023-01-05T00:49:04;9.90;99.90
4187;DHT22;2107;52.306;10.484;2023-01-05T00:51:30;9.90;99.90
4187;DHT22;2107;52.306;10.484;2023-01-05T00:53:57;9.80;99.90
4187;DHT22;2107;52.306;10.484;2023-01-05T00:56:24;9.70;99.90
4187;DHT22;2107;52.306;10.484;2023-01-05T00:58:52;9.60;99.90
4187;DHT22;2107;52.306;10.484;2023-01-05T01:01:19;9.60;99.90
4187;DHT22;2107;52.306;10.484;2023-01-05T01:03:48;9.60;99.90
4187;DHT22;2107;52.306;10.484;2023-01-05T01:06:15;9.60;99.90
4187;DHT22;2107;52.306;10.484;2023-01-05T01:08:42;9.60;99.90
4187;DHT22;2107;52.306;10.484;2023-01-05T01:11:09;9.60;99.90
4187;DHT22;2107;52.306;10.484;2023-01-05T01:13:36;9.50;99.90
4187;DHT22;2107;52.306;10.484;2023-01-05T01:16:07;9.50;99.90
4187;DHT22;2107;52.306;10.484;2023-01-05T01:18:34;9.60;99.90
4187;DHT22;2107;52.306;10.484;2023-01-05T01:21:03;9.60;99.90
4187;DHT22;2107;52.306;10.484;2023-01-05T01:23:30;9.60;99.90
4187;DHT22;2107;52.306;10.484;2023-01-05T01:25:58;9.60;99.90
4187;DHT22;2107;52.306;10.484;2023-01-05T01:28:25;9.70;99.90
4187;DHT22;2107;52.306;10.484;2023-01-05T01:30:52;9.80;99.90
4187;DHT22;2107;52.306;10.484;2023-01-05T01:33:19;9.90;99.90
4187;DHT22;2107;52.306;10.484;2023-01-05T01:35:45;9.90;99.90
4187;DHT22;2107;52.306;10.484;2023-01-05T01:38:13;9.90;99.90
4187;DHT22;2107;52.306;10.484;2023-01-05T01:40:42;9.80;99.90
4187;DHT22;2107;52.306;10.484;2023-01-05T01:43:12;9.90;99.90
4187;DHT22;2107;52.306;10.484;2023-01-05T01:45:39;9.80;99.90
4187;DHT22;2107;52.306;10.484;2023-01-05T01:48:06;9.80;99.90
4187;DHT22;2107;52.306;10.484;2023-01-05T01:50:37;9.90;99.90
4187;DHT22;2107;52.306;10.484;2023-01-05T01:53:08;9.90;99.90
4187;DHT22;2107;52.306;10.484;2023-01-05T01:55:38;10.00;99.90
4187;DHT22;2107;52.306;10.484;2023-01-05T01:58:08;10.00;99.90
4187;DHT22;2107;52.306;10.484;2023-01-05T02:00:39;10.00;99.90
4187;DHT22;2107;52.306;10.484;2023-01-05T02:03:06;10.10;99.90
4187;DHT22;2107;52.306;10.484;2023-01-05T02:05:34;10.00;99.90
4187;DHT22;2107;52.306;10.484;2023-01-05T02:08:03;10.10;99.90
4187;DHT22;2107;52.306;10.484;2023-01-05T02:10:49;10.00;99.90
4187;DHT22;2107;52.306;10.484;2023-01-05T02:13:27;10.00;99.90
4187;DHT22;2107;52.306;10.484;2023-01-05T02:16:01;10.00;99.90
4187;DHT22;2107;52.306;10.484;2023-01-05T02:18:41;10.10;99.90
4187;DHT22;2107;52.306;10.484;2023-01-05T02:21:25;10.10;99.90
4187;DHT22;2107;52.306;10.484;2023-01-05T02:27:06;10.00;99.90
4187;DHT22;2107;52.306;10.484;2023-01-05T02:32:37;10.10;99.90
4187;DHT22;2107;52.306;10.484;2023-01-05T02:35:12;10.10;99.90
4187;DHT22;2107;52.306;10.484;2023-01-05T02:37:44;10.10;99.90
4187;DHT22;2107;52.306;10.484;2023-01-05T02:40:14;10.00;99.90
4187;DHT22;2107;52.306;10.484;2023-01-05T02:42:45;10.00;99.90
4187;DHT22;2107;52.306;10.484;2023-01-05T02:45:15;9.90;99.90
4187;DHT22;2107;52.306;10.484;2023-01-05T02:47:43;9.70;99.90
4187;DHT22;2107;52.306;10.484;2023-01-05T02:50:14;9.60;99.90
4187;DHT22;2107;52.306;10.484;2023-01-05T02:52:47;9.60;99.90
4187;DHT22;2107;52.306;10.484;2023-01-05T02:55:22;9.50;99.90
4187;DHT22;2107;52.306;10.484;2023-01-05T02:57:55;9.50;99.90
4187;DHT22;2107;52.306;10.484;2023-01-05T03:00:25;9.40;99.90
4187;DHT22;2107;52.306;10.484;2023-01-05T03:02:59;9.40;99.90
4187;DHT22;2107;52.306;10.484;2023-01-05T03:05:31;9.30;99.90
4187;DHT22;2107;52.306;10.484;2023-01-05T03:07:59;9.20;99.90
4187;DHT22;2107;52.306;10.484;2023-01-05T03:10:38;9.20;99.90
4187;DHT22;2107;52.306;10.484;2023-01-05T03:13:26;9.10;99.90
4187;DHT22;2107;52.306;10.484;2023-01-05T03:16:10;9.00;99.90
4187;DHT22;2107;52.306;10.484;2023-01-05T03:18:39;9.00;99.90
4187;DHT22;2107;52.306;10.484;2023-01-05T03:21:21;9.00;99.90
4187;DHT22;2107;52.306;10.484;2023-01-05T03:23:48;8.90;99.90
4187;DHT22;2107;52.306;10.484;2023-01-05T03:26:33;8.90;99.90
4187;DHT22;2107;52.306;10.484;2023-01-05T03:29:18;8.90;99.90
4187;DHT22;2107;52.306;10.484;2023-01-05T03:32:08;8.90;99.90
4187;DHT22;2107;52.306;10.484;2023-01-05T03:35:02;8.90;99.90
4187;DHT22;2107;52.306;10.484;2023-01-05T03:37:52;8.90;99.90
4187;DHT22;2107;52.306;10.484;2023-01-05T03:40:25;8.90;99.90
4187;DHT22;2107;52.306;10.484;2023-01-05T03:42:54;8.90;99.90
4187;DHT22;2107;52.306;10.484;2023-01-05T03:45:21;8.90;99.90
4187;DHT22;2107;52.306;10.484;2023-01-05T03:47:48;8.90;99.90
4187;DHT22;2107;52.306;10.484;2023-01-05T03:50:17;8.90;99.90
4187;DHT22;2107;52.306;10.484;2023-01-05T03:52:44;9.00;99.90
4187;DHT22;2107;52.306;10.484;2023-01-05T03:55:10;8.90;99.90
4187;DHT22;2107;52.306;10.484;2023-01-05T03:57:37;9.00;99.90
4187;DHT22;2107;52.306;10.484;2023-01-05T04:00:05;9.10;99.90
4187;DHT22;2107;52.306;10.484;2023-01-05T04:02:32;9.00;99.90
4187;DHT22;2107;52.306;10.484;2023-01-05T04:04:59;9.00;99.90
4187;DHT22;2107;52.306;10.484;2023-01-05T04:07:27;9.00;99.90
4187;DHT22;2107;52.306;10.484;2023-01-05T04:09:54;9.10;99.90
4187;DHT22;2107;52.306;10.484;2023-01-05T04:12:20;9.10;99.90
4187;DHT22;2107;52.306;10.484;2023-01-05T04:14:47;9.10;99.90
4187;DHT22;2107;52.306;10.484;2023-01-05T04:17:14;9.10;99.90
4187;DHT22;2107;52.306;10.484;2023-01-05T04:19:41;9.20;99.90
4187;DHT22;2107;52.306;10.484;2023-01-05T04:22:08;9.20;99.90
4187;DHT22;2107;52.306;10.484;2023-01-05T04:24:36;9.30;99.90
4187;DHT22;2107;52.306;10.484;2023-01-05T04:27:03;9.30;99.90
4187;DHT22;2107;52.306;10.484;2023-01-05T04:29:30;9.30;99.90
4187;DHT22;2107;52.306;10.484;2023-01-05T04:31:56;9.20;99.90
4187;DHT22;2107;52.306;10.484;2023-01-05T04:34:23;9.20;99.90
4187;DHT22;2107;52.306;10.484;2023-01-05T04:36:50;9.10;99.90
4187;DHT22;2107;52.306;10.484;2023-01-05T04:39:17;9.10;99.90
4187;DHT22;2107;52.306;10.484;2023-01-05T04:41:45;9.10;99.90
4187;DHT22;2107;52.306;10.484;2023-01-05T04:44:13;9.10;99.90
4187;DHT22;2107;52.306;10.484;2023-01-05T04:46:40;9.10;99.90
4187;DHT22;2107;52.306;10.484;2023-01-05T04:49:08;9.10;99.90
4187;DHT22;2107;52.306;10.484;2023-01-05T04:51:35;9.10;99.90
4187;DHT22;2107;52.306;10.484;2023-01-05T04:54:02;8.90;99.90
4187;DHT22;2107;52.306;10.484;2023-01-05T04:56:29;9.10;99.90
4187;DHT22;2107;52.306;10.484;2023-01-05T04:58:57;9.10;99.90
4187;DHT22;2107;52.306;10.484;2023-01-05T05:01:24;9.10;99.90
4187;DHT22;2107;52.306;10.484;2023-01-05T05:03:51;9.10;99.90
4187;DHT22;2107;52.306;10.484;2023-01-05T05:06:18;9.00;99.90
4187;DHT22;2107;52.306;10.484;2023-01-05T05:08:44;9.10;99.90
4187;DHT22;2107;52.306;10.484;2023-01-05T05:11:11;9.00;99.90
4187;DHT22;2107;52.306;10.484;2023-01-05T05:13:38;8.90;99.90
4187;DHT22;2107;52.306;10.484;2023-01-05T05:16:07;9.00;99.90
4187;DHT22;2107;52.306;10.484;2023-01-05T05:18:34;8.90;99.90
4187;DHT22;2107;52.306;10.484;2023-01-05T05:21:00;8.90;99.90
4187;DHT22;2107;52.306;10.484;2023-01-05T05:23:27;8.90;99.90
4187;DHT22;2107;52.306;10.484;2023-01-05T05:25:54;9.00;99.90
4187;DHT22;2107;52.306;10.484;2023-01-05T05:28:21;9.00;99.90
4187;DHT22;2107;52.306;10.484;2023-01-05T05:30:52;9.00;99.90
4187;DHT22;2107;52.306;10.484;2023-01-05T05:33:20;9.00;99.90
4187;DHT22;2107;52.306;10.484;2023-01-05T05:35:47;9.00;99.90
4187;DHT22;2107;52.306;10.484;2023-01-05T05:38:14;9.00;99.90
4187;DHT22;2107;52.306;10.484;2023-01-05T05:40:41;9.10;99.90
4187;DHT22;2107;52.306;10.484;2023-01-05T05:43:08;9.10;99.90
4187;DHT22;2107;52.306;10.484;2023-01-05T05:45:35;9.20;99.90
4187;DHT22;2107;52.306;10.484;2023-01-05T05:48:02;9.20;99.90
4187;DHT22;2107;52.306;10.484;2023-01-05T05:50:31;9.20;99.90
4187;DHT22;2107;52.306;10.484;2023-01-05T05:52:58;9.10;99.90
4187;DHT22;2107;52.306;10.484;2023-01-05T05:55:25;9.20;99.90
4187;DHT22;2107;52.306;10.484;2023-01-05T05:57:52;9.30;99.90
4187;DHT22;2107;52.306;10.484;2023-01-05T06:00:19;9.20;99.90
4187;DHT22;2107;52.306;10.484;2023-01-05T06:02:46;9.20;99.90
4187;DHT22;2107;52.306;10.484;2023-01-05T06:05:13;9.20;99.90
4187;DHT22;2107;52.306;10.484;2023-01-05T06:07:41;9.20;99.90
4187;DHT22;2107;52.306;10.484;2023-01-05T06:10:08;9.00;99.90
4187;DHT22;2107;52.306;10.484;2023-01-05T06:12:35;9.00;99.90
4187;DHT22;2107;52.306;10.484;2023-01-05T06:15:02;8.90;99.90
4187;DHT22;2107;52.306;10.484;2023-01-05T06:17:29;8.90;99.90
4187;DHT22;2107;52.306;10.484;2023-01-05T06:19:56;8.90;99.90
4187;DHT22;2107;52.306;10.484;2023-01-05T06:22:23;8.90;99.90
4187;DHT22;2107;52.306;10.484;2023-01-05T06:24:51;8.90;99.90
4187;DHT22;2107;52.306;10.484;2023-01-05T06:27:18;8.90;99.90
4187;DHT22;2107;52.306;10.484;2023-01-05T06:29:44;8.90;99.90
4187;DHT22;2107;52.306;10.484;2023-01-05T06:32:11;9.00;99.90
4187;DHT22;2107;52.306;10.484;2023-01-05T06:34:38;9.00;99.90
4187;DHT22;2107;52.306;10.484;2023-01-05T06:37:05;9.10;99.90
4187;DHT22;2107;52.306;10.484;2023-01-05T06:39:32;9.10;99.90
4187;DHT22;2107;52.306;10.484;2023-01-05T06:42:00;9.20;99.90
4187;DHT22;2107;52.306;10.484;2023-01-05T06:44:27;9.20;99.90
4187;DHT22;2107;52.306;10.484;2023-01-05T06:46:54;9.30;99.90
4187;DHT22;2107;52.306;10.484;2023-01-05T06:49:20;9.50;99.90
4187;DHT22;2107;52.306;10.484;2023-01-05T06:51:47;9.30;99.90
4187;DHT22;2107;52.306;10.484;2023-01-05T06:54:14;9.30;99.90
4187;DHT22;2107;52.306;10.484;2023-01-05T06:56:41;9.30;99.90
4187;DHT22;2107;52.306;10.484;2023-01-05T06:59:11;9.30;99.90
4187;DHT22;2107;52.306;10.484;2023-01-05T07:01:38;9.30;99.90
4187;DHT22;2107;52.306;10.484;2023-01-05T07:04:05;9.30;99.90
4187;DHT22;2107;52.306;10.484;2023-01-05T07:06:33;9.30;99.90
4187;DHT22;2107;52.306;10.484;2023-01-05T07:09:00;9.10;99.90
4187;DHT22;2107;52.306;10.484;2023-01-05T07:11:27;9.00;99.90
4187;DHT22;2107;52.306;10.484;2023-01-05T07:13:54;8.90;99.90
4187;DHT22;2107;52.306;10.484;2023-01-05T07:16:22;8.80;99.90
4187;DHT22;2107;52.306;10.484;2023-01-05T07:18:49;8.80;99.90
4187;DHT22;2107;52.306;10.484;2023-01-05T07:21:16;8.70;99.90
4187;DHT22;2107;52.306;10.484;2023-01-05T07:23:43;8.70;99.90
4187;DHT22;2107;52.306;10.484;2023-01-05T07:26:10;8.70;99.90
4187;DHT22;2107;52.306;10.484;2023-01-05T07:28:37;8.80;99.90
4187;DHT22;2107;52.306;10.484;2023-01-05T07:31:04;8.70;99.90
4187;DHT22;2107;52.306;10.484;2023-01-05T07:33:34;8.70;99.90
4187;DHT22;2107;52.306;10.484;2023-01-05T07:36:01;8.70;99.90
4187;DHT22;2107;52.306;10.484;2023-01-05T07:38:29;8.80;99.90
4187;DHT22;2107;52.306;10.484;2023-01-05T07:40:58;8.80;99.90
4187;DHT22;2107;52.306;10.484;2023-01-05T07:43:25;8.80;99.90
4187;DHT22;2107;52.306;10.484;2023-01-05T07:45:56;8.80;99.90
4187;DHT22;2107;52.306;10.484;2023-01-05T07:48:23;8.80;99.90
4187;DHT22;2107;52.306;10.484;2023-01-05T07:50:51;8.80;99.90
4187;DHT22;2107;52.306;10.484;2023-01-05T07:53:18;8.80;99.90
4187;DHT22;2107;52.306;10.484;2023-01-05T07:55:54;8.80;99.90
4187;DHT22;2107;52.306;10.484;2023-01-05T07:58:21;8.80;99.90
4187;DHT22;2107;52.306;10.484;2023-01-05T08:00:48;8.90;99.90
4187;DHT22;2107;52.306;10.484;2023-01-05T08:03:16;8.90;99.90
4187;DHT22;2107;52.306;10.484;2023-01-05T08:05:43;8.90;99.90
4187;DHT22;2107;52.306;10.484;2023-01-05T08:08:11;8.90;99.90
4187;DHT22;2107;52.306;10.484;2023-01-05T08:10:38;8.90;99.90
4187;DHT22;2107;52.306;10.484;2023-01-05T08:13:06;9.00;99.90
4187;DHT22;2107;52.306;10.484;2023-01-05T08:15:51;9.00;99.90
4187;DHT22;2107;52.306;10.484;2023-01-05T08:18:19;9.00;99.90
4187;DHT22;2107;52.306;10.484;2023-01-05T08:20:50;9.00;99.90
4187;DHT22;2107;52.306;10.484;2023-01-05T08:23:19;8.90;99.90
4187;DHT22;2107;52.306;10.484;2023-01-05T08:25:46;8.90;99.90
4187;DHT22;2107;52.306;10.484;2023-01-05T08:28:13;8.90;99.90
4187;DHT22;2107;52.306;10.484;2023-01-05T08:30:40;8.90;99.90
4187;DHT22;2107;52.306;10.484;2023-01-05T08:33:06;8.90;99.90
4187;DHT22;2107;52.306;10.484;2023-01-05T08:35:33;8.90;99.90
4187;DHT22;2107;52.306;10.484;2023-01-05T08:38:00;8.90;99.90
4187;DHT22;2107;52.306;10.484;2023-01-05T08:40:29;8.90;99.90
4187;DHT22;2107;52.306;10.484;2023-01-05T08:42:56;8.90;99.90
4187;DHT22;2107;52.306;10.484;2023-01-05T08:45:23;8.80;99.90
4187;DHT22;2107;52.306;10.484;2023-01-05T08:47:50;8.80;99.90
4187;DHT22;2107;52.306;10.484;2023-01-05T08:50:17;8.80;99.90
4187;DHT22;2107;52.306;10.484;2023-01-05T08:52:44;8.80;99.90
4187;DHT22;2107;52.306;10.484;2023-01-05T08:55:11;8.80;99.90
4187;DHT22;2107;52.306;10.484;2023-01-05T08:57:39;8.90;99.90
4187;DHT22;2107;52.306;10.484;2023-01-05T09:00:07;8.90;99.90
4187;DHT22;2107;52.306;10.484;2023-01-05T09:02:35;9.00;99.90
4187;DHT22;2107;52.306;10.484;2023-01-05T09:05:01;8.90;99.90
4187;DHT22;2107;52.306;10.484;2023-01-05T09:07:28;8.90;99.90
4187;DHT22;2107;52.306;10.484;2023-01-05T09:09:55;8.90;99.90
4187;DHT22;2107;52.306;10.484;2023-01-05T09:12:22;8.90;99.90
4187;DHT22;2107;52.306;10.484;2023-01-05T09:14:50;8.90;99.90
4187;DHT22;2107;52.306;10.484;2023-01-05T09:17:18;8.80;99.90
4187;DHT22;2107;52.306;10.484;2023-01-05T09:19:45;8.90;99.90
4187;DHT22;2107;52.306;10.484;2023-01-05T09:22:12;8.90;99.90
4187;DHT22;2107;52.306;10.484;2023-01-05T09:24:39;8.90;99.90
4187;DHT22;2107;52.306;10.484;2023-01-05T09:27:06;8.90;99.90
4187;DHT22;2107;52.306;10.484;2023-01-05T09:29:33;9.00;99.90
4187;DHT22;2107;52.306;10.484;2023-01-05T09:32:01;8.90;99.90
4187;DHT22;2107;52.306;10.484;2023-01-05T09:34:28;8.90;99.90
4187;DHT22;2107;52.306;10.484;2023-01-05T09:36:55;8.90;99.90
4187;DHT22;2107;52.306;10.484;2023-01-05T09:39:22;8.90;99.90
4187;DHT22;2107;52.306;10.484;2023-01-05T09:41:50;8.90;99.90
4187;DHT22;2107;52.306;10.484;2023-01-05T09:44:25;8.90;99.90
4187;DHT22;2107;52.306;10.484;2023-01-05T09:46:54;8.90;99.90
4187;DHT22;2107;52.306;10.484;2023-01-05T09:49:25;8.90;99.90
4187;DHT22;2107;52.306;10.484;2023-01-05T09:51:56;8.90;99.90
4187;DHT22;2107;52.306;10.484;2023-01-05T09:54:25;8.90;99.90
4187;DHT22;2107;52.306;10.484;2023-01-05T09:56:53;8.90;99.90
4187;DHT22;2107;52.306;10.484;2023-01-05T09:59:24;9.00;99.90
4187;DHT22;2107;52.306;10.484;2023-01-05T10:01:53;9.00;99.90
4187;DHT22;2107;52.306;10.484;2023-01-05T10:04:24;9.00;99.90
4187;DHT22;2107;52.306;10.484;2023-01-05T10:06:55;9.00;99.90
4187;DHT22;2107;52.306;10.484;2023-01-05T10:09:34;9.10;99.90
4187;DHT22;2107;52.306;10.484;2023-01-05T10:12:11;9.10;99.90
4187;DHT22;2107;52.306;10.484;2023-01-05T10:15:03;9.10;99.90
4187;DHT22;2107;52.306;10.484;2023-01-05T10:17:33;8.50;99.90
4187;DHT22;2107;52.306;10.484;2023-01-05T10:20:04;8.00;99.90
4187;DHT22;2107;52.306;10.484;2023-01-05T10:22:40;7.70;99.90
4187;DHT22;2107;52.306;10.484;2023-01-05T10:25:16;7.50;99.90
4187;DHT22;2107;52.306;10.484;2023-01-05T10:27:49;7.40;99.90
4187;DHT22;2107;52.306;10.484;2023-01-05T10:30:22;7.30;99.90
4187;DHT22;2107;52.306;10.484;2023-01-05T10:32:57;7.20;99.90
4187;DHT22;2107;52.306;10.484;2023-01-05T10:35:47;7.10;99.90
4187;DHT22;2107;52.306;10.484;2023-01-05T10:38:28;7.10;99.90
4187;DHT22;2107;52.306;10.484;2023-01-05T10:41:03;7.10;99.90
4187;DHT22;2107;52.306;10.484;2023-01-05T10:43:49;6.90;99.90
4187;DHT22;2107;52.306;10.484;2023-01-05T10:46:18;6.90;99.90
4187;DHT22;2107;52.306;10.484;2023-01-05T10:48:46;6.80;99.90
4187;DHT22;2107;52.306;10.484;2023-01-05T10:51:14;6.90;99.90
4187;DHT22;2107;52.306;10.484;2023-01-05T10:53:41;6.90;99.90
4187;DHT22;2107;52.306;10.484;2023-01-05T10:56:13;6.90;99.90
4187;DHT22;2107;52.306;10.484;2023-01-05T10:58:41;7.00;99.90
4187;DHT22;2107;52.306;10.484;2023-01-05T11:01:22;7.10;99.90
4187;DHT22;2107;52.306;10.484;2023-01-05T11:03:53;7.20;99.90
4187;DHT22;2107;52.306;10.484;2023-01-05T11:06:26;7.30;99.90
4187;DHT22;2107;52.306;10.484;2023-01-05T11:08:53;7.40;99.90
4187;DHT22;2107;52.306;10.484;2023-01-05T11:11:22;7.40;99.90
4187;DHT22;2107;52.306;10.484;2023-01-05T11:13:52;7.50;99.90
4187;DHT22;2107;52.306;10.484;2023-01-05T11:16:22;7.60;99.90
4187;DHT22;2107;52.306;10.484;2023-01-05T11:18:52;7.50;99.90
4187;DHT22;2107;52.306;10.484;2023-01-05T11:21:21;7.60;99.90
4187;DHT22;2107;52.306;10.484;2023-01-05T11:23:51;7.70;99.90
4187;DHT22;2107;52.306;10.484;2023-01-05T11:26:31;7.80;99.90
4187;DHT22;2107;52.306;10.484;2023-01-05T11:29:00;7.80;99.90
4187;DHT22;2107;52.306;10.484;2023-01-05T11:31:33;8.00;99.90
4187;DHT22;2107;52.306;10.484;2023-01-05T11:34:05;8.10;99.90
4187;DHT22;2107;52.306;10.484;2023-01-05T11:36:34;8.10;99.90
4187;DHT22;2107;52.306;10.484;2023-01-05T11:39:02;8.10;99.90
4187;DHT22;2107;52.306;10.484;2023-01-05T11:41:29;8.20;99.90
4187;DHT22;2107;52.306;10.484;2023-01-05T11:43:56;8.20;99.90
4187;DHT22;2107;52.306;10.484;2023-01-05T11:46:39;8.30;99.90
4187;DHT22;2107;52.306;10.484;2023-01-05T11:49:07;8.20;99.90
4187;DHT22;2107;52.306;10.484;2023-01-05T11:51:37;8.20;99.90
4187;DHT22;2107;52.306;10.484;2023-01-05T11:54:25;8.20;99.90
4187;DHT22;2107;52.306;10.484;2023-01-05T11:57:10;8.20;99.90
4187;DHT22;2107;52.306;10.484;2023-01-05T11:59:38;8.30;99.90
4187;DHT22;2107;52.306;10.484;2023-01-05T12:02:23;8.20;99.90
4187;DHT22;2107;52.306;10.484;2023-01-05T12:05:03;8.30;99.90
4187;DHT22;2107;52.306;10.484;2023-01-05T12:07:36;8.40;99.90
4187;DHT22;2107;52.306;10.484;2023-01-05T12:10:24;8.40;99.90
4187;DHT22;2107;52.306;10.484;2023-01-05T12:13:03;8.50;99.90
4187;DHT22;2107;52.306;10.484;2023-01-05T12:16:03;8.50;99.90
4187;DHT22;2107;52.306;10.484;2023-01-05T12:19:00;8.60;99.90
4187;DHT22;2107;52.306;10.484;2023-01-05T12:21:34;8.60;99.90
4187;DHT22;2107;52.306;10.484;2023-01-05T12:24:22;8.70;99.90
4187;DHT22;2107;52.306;10.484;2023-01-05T12:27:09;8.60;99.90
4187;DHT22;2107;52.306;10.484;2023-01-05T12:29:54;8.60;99.90
4187;DHT22;2107;52.306;10.484;2023-01-05T12:32:35;8.50;99.90
4187;DHT22;2107;52.306;10.484;2023-01-05T12:35:29;8.50;99.90
4187;DHT22;2107;52.306;10.484;2023-01-05T12:38:17;8.60;99.90
4187;DHT22;2107;52.306;10.484;2023-01-05T12:43:59;8.70;99.90
4187;DHT22;2107;52.306;10.484;2023-01-05T12:46:46;8.70;99.90
4187;DHT22;2107;52.306;10.484;2023-01-05T12:49:18;8.70;99.90
4187;DHT22;2107;52.306;10.484;2023-01-05T12:51:49;8.60;99.90
4187;DHT22;2107;52.306;10.484;2023-01-05T12:54:28;8.70;99.90
4187;DHT22;2107;52.306;10.484;2023-01-05T12:57:00;8.80;99.90
4187;DHT22;2107;52.306;10.484;2023-01-05T12:59:33;9.00;99.90
4187;DHT22;2107;52.306;10.484;2023-01-05T13:02:07;9.20;99.90
4187;DHT22;2107;52.306;10.484;2023-01-05T13:04:48;9.30;99.90
4187;DHT22;2107;52.306;10.484;2023-01-05T13:07:22;9.10;99.90
4187;DHT22;2107;52.306;10.484;2023-01-05T13:09:56;9.20;99.90
4187;DHT22;2107;52.306;10.484;2023-01-05T13:12:23;9.20;99.90
4187;DHT22;2107;52.306;10.484;2023-01-05T13:15:03;9.20;99.90
4187;DHT22;2107;52.306;10.484;2023-01-05T13:17:32;9.10;99.90
4187;DHT22;2107;52.306;10.484;2023-01-05T13:20:04;9.20;99.90
4187;DHT22;2107;52.306;10.484;2023-01-05T13:22:38;9.40;99.90
4187;DHT22;2107;52.306;10.484;2023-01-05T13:25:13;9.50;99.90
4187;DHT22;2107;52.306;10.484;2023-01-05T13:27:42;9.50;99.90
4187;DHT22;2107;52.306;10.484;2023-01-05T13:30:19;9.40;99.90
4187;DHT22;2107;52.306;10.484;2023-01-05T13:33:07;9.30;99.90
4187;DHT22;2107;52.306;10.484;2023-01-05T13:35:47;9.20;99.90
4187;DHT22;2107;52.306;10.484;2023-01-05T13:41:35;9.00;99.90
4187;DHT22;2107;52.306;10.484;2023-01-05T13:44:18;9.00;99.90
4187;DHT22;2107;52.306;10.484;2023-01-05T13:47:10;8.90;99.90
4187;DHT22;2107;52.306;10.484;2023-01-05T13:50:20;8.90;99.90
4187;DHT22;2107;52.306;10.484;2023-01-05T13:53:00;8.80;99.90
4187;DHT22;2107;52.306;10.484;2023-01-05T13:55:30;8.80;99.90
4187;DHT22;2107;52.306;10.484;2023-01-05T13:57:58;8.80;99.90
4187;DHT22;2107;52.306;10.484;2023-01-05T14:00:29;8.80;99.90
4187;DHT22;2107;52.306;10.484;2023-01-05T14:03:03;8.70;99.90
4187;DHT22;2107;52.306;10.484;2023-01-05T14:05:37;8.80;99.90
4187;DHT22;2107;52.306;10.484;2023-01-05T14:08:16;8.80;99.90
4187;DHT22;2107;52.306;10.484;2023-01-05T14:11:11;8.90;99.90
4187;DHT22;2107;52.306;10.484;2023-01-05T14:13:41;8.80;99.90
4187;DHT22;2107;52.306;10.484;2023-01-05T14:20:01;8.80;99.90
4187;DHT22;2107;52.306;10.484;2023-01-05T14:22:36;8.80;99.90
4187;DHT22;2107;52.306;10.484;2023-01-05T14:28:20;8.70;99.90
4187;DHT22;2107;52.306;10.484;2023-01-05T14:30:48;8.60;99.90
4187;DHT22;2107;52.306;10.484;2023-01-05T14:33:17;8.60;99.90
4187;DHT22;2107;52.306;10.484;2023-01-05T14:35:45;8.60;99.90
4187;DHT22;2107;52.306;10.484;2023-01-05T14:38:20;8.60;99.90
4187;DHT22;2107;52.306;10.484;2023-01-05T14:40:49;8.60;99.90
4187;DHT22;2107;52.306;10.484;2023-01-05T14:43:26;8.60;99.90
4187;DHT22;2107;52.306;10.484;2023-01-05T14:46:00;8.60;99.90
4187;DHT22;2107;52.306;10.484;2023-01-05T14:48:29;8.50;99.90
4187;DHT22;2107;52.306;10.484;2023-01-05T14:51:17;8.40;99.90
4187;DHT22;2107;52.306;10.484;2023-01-05T14:53:46;8.30;99.90
4187;DHT22;2107;52.306;10.484;2023-01-05T14:56:17;8.20;99.90
4187;DHT22;2107;52.306;10.484;2023-01-05T14:59:00;8.10;99.90
4187;DHT22;2107;52.306;10.484;2023-01-05T15:01:34;8.10;99.90
4187;DHT22;2107;52.306;10.484;2023-01-05T15:04:06;8.00;99.90
4187;DHT22;2107;52.306;10.484;2023-01-05T15:06:50;7.90;99.90
4187;DHT22;2107;52.306;10.484;2023-01-05T15:09:32;7.90;99.90
4187;DHT22;2107;52.306;10.484;2023-01-05T15:12:22;7.80;99.90
4187;DHT22;2107;52.306;10.484;2023-01-05T15:18:15;7.80;99.90
4187;DHT22;2107;52.306;10.484;2023-01-05T15:21:08;7.80;99.90
4187;DHT22;2107;52.306;10.484;2023-01-05T15:24:00;7.80;99.90
4187;DHT22;2107;52.306;10.484;2023-01-05T15:26:41;7.80;99.90
4187;DHT22;2107;52.306;10.484;2023-01-05T15:32:08;7.80;99.90
4187;DHT22;2107;52.306;10.484;2023-01-05T15:34:42;7.90;99.90
4187;DHT22;2107;52.306;10.484;2023-01-05T15:37:13;7.80;99.90
4187;DHT22;2107;52.306;10.484;2023-01-05T15:39:48;7.80;99.90
4187;DHT22;2107;52.306;10.484;2023-01-05T15:42:19;7.90;99.90
4187;DHT22;2107;52.306;10.484;2023-01-05T15:44:48;7.90;99.90
4187;DHT22;2107;52.306;10.484;2023-01-05T15:47:17;7.90;99.90
4187;DHT22;2107;52.306;10.484;2023-01-05T15:49:44;7.90;99.90
4187;DHT22;2107;52.306;10.484;2023-01-05T15:52:20;7.90;99.90
4187;DHT22;2107;52.306;10.484;2023-01-05T15:55:00;7.90;99.90
4187;DHT22;2107;52.306;10.484;2023-01-05T15:57:27;7.90;99.90
4187;DHT22;2107;52.306;10.484;2023-01-05T15:59:54;7.90;99.90
4187;DHT22;2107;52.306;10.484;2023-01-05T16:02:22;8.00;99.90
4187;DHT22;2107;52.306;10.484;2023-01-05T16:05:12;7.90;99.90
4187;DHT22;2107;52.306;10.484;2023-01-05T16:07:43;7.90;99.90
4187;DHT22;2107;52.306;10.484;2023-01-05T16:10:18;7.90;99.90
4187;DHT22;2107;52.306;10.484;2023-01-05T16:12:48;7.80;99.90
4187;DHT22;2107;52.306;10.484;2023-01-05T16:15:18;7.80;99.90
4187;DHT22;2107;52.306;10.484;2023-01-05T16:17:47;7.70;99.90
4187;DHT22;2107;52.306;10.484;2023-01-05T16:20:16;7.70;99.90
4187;DHT22;2107;52.306;10.484;2023-01-05T16:22:46;7.70;99.90
4187;DHT22;2107;52.306;10.484;2023-01-05T16:25:18;7.70;99.90
4187;DHT22;2107;52.306;10.484;2023-01-05T16:27:48;7.60;99.90
4187;DHT22;2107;52.306;10.484;2023-01-05T16:30:26;7.50;99.90
4187;DHT22;2107;52.306;10.484;2023-01-05T16:32:55;7.50;99.90
4187;DHT22;2107;52.306;10.484;2023-01-05T16:35:29;7.50;99.90
4187;DHT22;2107;52.306;10.484;2023-01-05T16:38:22;7.40;99.90
4187;DHT22;2107;52.306;10.484;2023-01-05T16:41:20;7.50;99.90
4187;DHT22;2107;52.306;10.484;2023-01-05T16:43:53;7.40;99.90
4187;DHT22;2107;52.306;10.484;2023-01-05T16:46:32;7.40;99.90
4187;DHT22;2107;52.306;10.484;2023-01-05T16:51:44;7.40;99.90
4187;DHT22;2107;52.306;10.484;2023-01-05T16:54:16;7.30;99.90
4187;DHT22;2107;52.306;10.484;2023-01-05T16:56:49;7.30;99.90
4187;DHT22;2107;52.306;10.484;2023-01-05T16:59:42;7.20;99.90